CYLW

Kelowna International Airport

Kelowna, British Columbia, Canada
TAF CYLW 171838Z 1719/1807 VRB03KT P6SM OVC040 BECMG 1719/1721 33008KT FM172200 33008KT P6SM BKN040 TEMPO 1722/1807 SCT040 RMK FCST BASED ON AUTO OBS. NXT FCST BY 180100Z
Issued Valid From Valid To
Nov-17 @ 18:38 UTC
(3 hours ago)
Nov-17 @ 19:00 UTC
(3 hours ago)
Nov-18 @ 07:00 UTC
(in 9 hours)
Nov-17 @ 19:00 to Nov-18 @ 07:00
TAF CYLW 171838Z 1719/1807 VRB03KT P6SM OVC040
Wind Visibility Clouds
Variable at 3 knots Greater than 6 miles
  • Overcast at 4,000' AGL
Becoming Nov-17 @ 19:00 to Nov-17 @ 22:00
BECMG 1719/1721 33008KT
Wind Visibility Clouds
330° at 8 knots Greater than 6 miles
  • Overcast at 4,000' AGL
From Nov-17 @ 22:00 to Nov-18 @ 07:00
FM172200 33008KT P6SM BKN040
Wind Visibility Clouds
330° at 8 knots Greater than 6 miles
  • Broken at 4,000' AGL
Temporary Nov-17 @ 22:00 to Nov-18 @ 07:00
TEMPO 1722/1807 SCT040 RMK FCST BASED ON AUTO OBS. NXT FCST BY 180100Z
Clouds
  • Scattered at 4,000' AGL
TAF CYLW 171838Z 1719/1807 VRB03KT P6SM OVC040 BECMG 1719/1721 33008KT FM172200 33008KT P6SM BKN040 TEMPO 1722/1807 SCT040 RMK FCST BASED ON AUTO OBS. NXT FCST BY 180100Z
Issued Nov-17 @ 18:38 UTC
(3 hours ago)
Valid From Nov-17 @ 19:00 UTC
(3 hours ago)
Valid To Nov-18 @ 07:00 UTC
(in 9 hours)
Nov-17 @ 19:00 - Nov-18 @ 07:00
Wind Visibility
Variable at 3 knots Greater than 6 miles
Clouds
  • Overcast at 4,000' AGL
Becoming Nov-17 @ 19:00 - Nov-17 @ 22:00
Wind Visibility
330° at 8 knots Greater than 6 miles
Clouds
  • Overcast at 4,000' AGL
From Nov-17 @ 22:00 - Nov-18 @ 07:00
Wind Visibility
330° at 8 knots Greater than 6 miles
Clouds
  • Broken at 4,000' AGL
Temporary Nov-17 @ 22:00 - Nov-18 @ 07:00
Clouds
  • Scattered at 4,000' AGL